Time;durP1;ratioP1;P1;durP2;ratioP2;P2;SDS_P1;SDS_P2;PMS_P1;PMS_P2;Temp;Humidity;BMP_temperature;BMP_pressure;BME280_temperature;BME280_humidity;BME280_pressure;Samples;Min_cycle;Max_cycle;Signal;HPM_P1;HPM_P2
2021/08/27 00:01:45;;;;;;;;;;;;;;;16.19;100.00;99841.00;5088806;28;20407;-82
2021/08/27 00:04:12;;;;;;;;;;;;;;;16.18;100.00;99844.28;5057061;28;19924;-82
2021/08/27 00:06:39;;;;;;;;;;;;;;;16.24;100.00;99825.59;5077006;28;19947;-82
2021/08/27 00:09:09;;;;;;;;;;;;;;;16.36;100.00;99843.81;5064185;28;20010;-82
2021/08/27 00:11:39;;;;;;;;;;;;;;;16.47;100.00;99835.88;5071727;28;20380;-82
2021/08/27 00:14:06;;;;;;;;;;;;;;;16.35;100.00;99842.22;5074345;28;19959;-82
2021/08/27 00:16:33;;;;;;;;;;;;;;;16.43;100.00;99850.06;5040374;28;19925;-82
2021/08/27 00:19:00;;;;;;;;;;;;;;;16.39;100.00;99842.94;5054220;28;19925;-82
2021/08/27 00:21:27;;;;;;;;;;;;;;;16.38;100.00;99852.63;5068414;28;19924;-82
2021/08/27 00:23:54;;;;;;;;;;;;;;;16.36;100.00;99855.09;5043038;28;19931;-82
2021/08/27 00:26:25;;;;;;;;;;;;;;;16.39;100.00;99848.56;5066657;28;19929;-81
2021/08/27 00:28:53;;;;;;;;;;;;;;;16.39;100.00;99857.03;5020974;28;19924;-82
2021/08/27 00:31:20;;;;;;;;;;;;;;;16.32;100.00;99854.38;5047700;28;19928;-82
2021/08/27 00:33:58;;;;;;;;;;;;;;;16.14;100.00;99843.59;5057739;28;20013;-82
2021/08/27 00:36:25;;;;;;;;;;;;;;;16.15;100.00;99851.59;5045313;28;20283;-82
2021/08/27 00:38:51;;;;;;;;;;;;;;;16.10;100.00;99846.50;5057280;28;19931;-82
2021/08/27 00:41:19;;;;;;;;;;;;;;;16.16;100.00;99843.94;5074031;28;19924;-82
2021/08/27 00:43:46;;;;;;;;;;;;;;;16.06;100.00;99842.19;5056117;28;19928;-82
2021/08/27 00:46:13;;;;;;;;;;;;;;;16.14;100.00;99841.56;5048094;28;20392;-82
2021/08/27 00:48:40;;;;;;;;;;;;;;;15.93;100.00;99849.78;5050353;28;19925;-82
2021/08/27 00:51:07;;;;;;;;;;;;;;;15.98;100.00;99841.56;5036014;28;19932;-83
2021/08/27 00:53:34;;;;;;;;;;;;;;;16.03;100.00;99849.50;5053373;28;19932;-82
2021/08/27 00:56:01;;;;;;;;;;;;;;;16.06;100.00;99842.97;5020870;28;19924;-82
2021/08/27 00:58:30;;;;;;;;;;;;;;;16.04;100.00;99833.38;5032494;28;20062;-82
2021/08/27 01:00:58;;;;;;;;;;;;;;;15.87;100.00;99829.75;5048976;28;20407;-82
2021/08/27 01:03:25;;;;;;;;;;;;;;;15.96;100.00;99829.94;5039614;28;20003;-82
2021/08/27 01:06:12;;;;;;;;;;;;;;;16.04;100.00;99839.81;5053285;28;19931;-82
2021/08/27 01:08:47;;;;;;;;;;;;;;;16.07;100.00;99838.13;5055572;28;20263;-82
2021/08/27 01:11:24;;;;;;;;;;;;;;;16.13;100.00;99831.50;5065766;28;20283;-82
2021/08/27 01:13:57;;;;;;;;;;;;;;;16.07;100.00;99830.47;5063411;28;19931;-82
2021/08/27 01:16:27;;;;;;;;;;;;;;;16.12;100.00;99829.13;5055759;28;19931;-82
2021/08/27 01:19:17;;;;;;;;;;;;;;;16.00;100.00;99829.84;5052212;28;19931;-82
2021/08/27 01:21:57;;;;;;;;;;;;;;;15.79;100.00;99828.38;5070345;28;20303;-82
2021/08/27 01:24:27;;;;;;;;;;;;;;;16.24;100.00;99832.03;5075753;28;19924;-82
2021/08/27 01:26:55;;;;;;;;;;;;;;;16.37;100.00;99814.38;5073597;28;20064;-82
2021/08/27 01:29:42;;;;;;;;;;;;;;;16.48;100.00;99823.38;5087049;28;19928;-82
2021/08/27 01:32:12;;;;;;;;;;;;;;;16.30;100.00;99823.81;5093565;28;19925;-82
2021/08/27 01:34:41;;;;;;;;;;;;;;;15.89;100.00;99832.94;5059902;28;19932;-82
2021/08/27 01:37:14;;;;;;;;;;;;;;;15.16;100.00;99829.81;5077095;28;19928;-82
2021/08/27 01:39:47;;;;;;;;;;;;;;;15.78;100.00;99828.81;5069841;28;20017;-82
2021/08/27 01:42:15;;;;;;;;;;;;;;;16.06;100.00;99831.69;5043016;28;19924;-82
2021/08/27 01:44:43;;;;;;;;;;;;;;;16.12;100.00;99832.75;5059099;28;19924;-82
2021/08/27 01:47:12;;;;;;;;;;;;;;;16.22;100.00;99823.22;5059276;28;19947;-82
2021/08/27 01:49:40;;;;;;;;;;;;;;;16.37;100.00;99826.47;5042502;28;20007;-82
2021/08/27 01:52:07;;;;;;;;;;;;;;;16.47;100.00;99830.22;5053963;28;19928;-82
2021/08/27 01:54:35;;;;;;;;;;;;;;;16.39;100.00;99829.59;5079183;28;19924;-82
2021/08/27 01:57:03;;;;;;;;;;;;;;;16.28;100.00;99838.34;5059480;28;20414;-82
2021/08/27 01:59:33;;;;;;;;;;;;;;;16.31;100.00;99835.91;5043513;28;19924;-82
2021/08/27 02:02:01;;;;;;;;;;;;;;;16.18;100.00;99850.72;5097495;28;19924;-82
2021/08/27 02:04:33;;;;;;;;;;;;;;;16.22;100.00;99848.59;5084716;28;19970;-83
2021/08/27 02:07:04;;;;;;;;;;;;;;;16.20;100.00;99839.00;5050274;28;19927;-82
2021/08/27 02:09:32;;;;;;;;;;;;;;;16.44;100.00;99842.41;5078988;28;19930;-82
2021/08/27 02:12:00;;;;;;;;;;;;;;;16.52;100.00;99835.34;5061886;28;19975;-82
2021/08/27 02:14:27;;;;;;;;;;;;;;;16.51;100.00;99845.03;5071269;28;19935;-82
2021/08/27 02:16:54;;;;;;;;;;;;;;;16.49;100.00;99853.97;5060330;28;19932;-82
2021/08/27 02:19:21;;;;;;;;;;;;;;;16.00;100.00;99844.75;5058752;28;19970;-82
2021/08/27 02:21:51;;;;;;;;;;;;;;;16.16;100.00;99839.06;5073306;28;20283;-82
2021/08/27 02:24:20;;;;;;;;;;;;;;;16.34;100.00;99841.44;5058681;28;20519;-82
2021/08/27 02:26:48;;;;;;;;;;;;;;;16.46;100.00;99849.22;5078496;28;19928;-82
2021/08/27 02:29:17;;;;;;;;;;;;;;;16.45;100.00;99844.00;5090410;28;19924;-82
2021/08/27 02:31:48;;;;;;;;;;;;;;;16.49;100.00;99841.88;5081383;28;20053;-82
2021/08/27 02:34:16;;;;;;;;;;;;;;;16.54;100.00;99847.75;5078680;28;19930;-82
2021/08/27 02:36:45;;;;;;;;;;;;;;;16.51;100.00;99839.41;5078521;28;20349;-82
2021/08/27 02:39:12;;;;;;;;;;;;;;;16.52;100.00;99843.81;5095281;28;19924;-82
2021/08/27 02:41:39;;;;;;;;;;;;;;;16.48;100.00;99854.41;5058234;28;20371;-82
2021/08/27 02:44:07;;;;;;;;;;;;;;;16.58;100.00;99851.28;5076111;28;20388;-83
2021/08/27 02:46:33;;;;;;;;;;;;;;;16.28;100.00;99844.00;5046839;28;20375;-82
2021/08/27 02:49:01;;;;;;;;;;;;;;;16.16;100.00;99844.72;5078304;28;19924;-83
2021/08/27 02:51:33;;;;;;;;;;;;;;;16.14;100.00;99843.59;5074649;28;19929;-82
2021/08/27 02:54:03;;;;;;;;;;;;;;;16.27;100.00;99833.97;5052092;28;19924;-82
2021/08/27 02:56:32;;;;;;;;;;;;;;;16.40;100.00;99850.16;5094598;28;20464;-82
2021/08/27 02:58:59;;;;;;;;;;;;;;;16.33;100.00;99839.06;5068643;28;20295;-82
2021/08/27 03:01:36;;;;;;;;;;;;;;;16.45;100.00;99846.81;5037004;28;20011;-82
2021/08/27 03:04:23;;;;;;;;;;;;;;;16.46;100.00;99842.75;5041431;28;19931;-82
2021/08/27 03:06:51;;;;;;;;;;;;;;;16.21;100.00;99855.47;5058831;28;20343;-82
2021/08/27 03:09:18;;;;;;;;;;;;;;;16.01;100.00;99846.31;5061198;28;20050;-82
2021/08/27 03:11:51;;;;;;;;;;;;;;;15.93;100.00;99842.09;5095798;28;19924;-82
2021/08/27 03:14:28;;;;;;;;;;;;;;;16.12;100.00;99837.59;5041026;28;19924;-82
2021/08/27 03:16:58;;;;;;;;;;;;;;;16.25;100.00;99842.06;5089712;28;19931;-82
2021/08/27 03:19:28;;;;;;;;;;;;;;;16.23;100.00;99849.38;5075493;28;20375;-82
2021/08/27 03:21:57;;;;;;;;;;;;;;;16.24;100.00;99843.31;5054789;28;19924;-82
2021/08/27 03:24:32;;;;;;;;;;;;;;;16.43;100.00;99841.59;5077788;28;19924;-82
2021/08/27 03:27:01;;;;;;;;;;;;;;;16.10;100.00;99856.97;5059903;28;19981;-82
2021/08/27 03:29:30;;;;;;;;;;;;;;;16.15;100.00;99851.59;5057496;28;19928;-82
2021/08/27 03:31:58;;;;;;;;;;;;;;;16.14;100.00;99841.56;5055316;28;20429;-82
2021/08/27 03:34:25;;;;;;;;;;;;;;;16.38;100.00;99846.97;5071365;28;19925;-82
2021/08/27 03:36:52;;;;;;;;;;;;;;;16.35;100.00;99848.66;5058311;28;20426;-82
2021/08/27 03:39:20;;;;;;;;;;;;;;;16.20;100.00;99851.06;5061439;28;19924;-82
2021/08/27 03:41:47;;;;;;;;;;;;;;;16.26;100.00;99856.97;5050260;28;19932;-82
2021/08/27 03:44:16;;;;;;;;;;;;;;;16.39;100.00;99851.41;5057347;28;20423;-82
2021/08/27 03:46:43;;;;;;;;;;;;;;;16.30;100.00;99849.19;5062800;28;19925;-82
2021/08/27 03:49:12;;;;;;;;;;;;;;;16.13;100.00;99848.41;5059786;28;19924;-82
2021/08/27 03:51:39;;;;;;;;;;;;;;;16.16;100.00;99852.41;5094771;28;19923;-82
2021/08/27 03:54:14;;;;;;;;;;;;;;;16.02;100.00;99853.53;5080043;28;19963;-81
2021/08/27 03:56:42;;;;;;;;;;;;;;;16.08;100.00;99846.13;5081631;28;19931;-82
2021/08/27 03:59:10;;;;;;;;;;;;;;;16.08;100.00;99843.31;5077583;28;19931;-82
2021/08/27 04:01:38;;;;;;;;;;;;;;;16.06;100.00;99842.19;5075223;28;19949;-81
2021/08/27 04:04:07;;;;;;;;;;;;;;;15.89;100.00;99843.41;5056984;28;19924;-81
2021/08/27 04:06:34;;;;;;;;;;;;;;;16.15;100.00;99842.34;5061186;28;20368;-82
2021/08/27 04:09:01;;;;;;;;;;;;;;;16.11;100.00;99833.19;5059629;28;20420;-81
2021/08/27 04:11:28;;;;;;;;;;;;;;;16.21;100.00;99838.56;5059248;28;19931;-82
2021/08/27 04:13:55;;;;;;;;;;;;;;;16.21;100.00;99837.75;5076998;28;19924;-82
2021/08/27 04:16:22;;;;;;;;;;;;;;;16.19;100.00;99835.38;5076007;28;19924;-82
2021/08/27 04:18:49;;;;;;;;;;;;;;;16.30;100.00;99831.50;5074591;28;19928;-82
2021/08/27 04:21:16;;;;;;;;;;;;;;;16.13;100.00;99831.50;5069776;28;19924;-82
2021/08/27 04:23:43;;;;;;;;;;;;;;;16.14;100.00;99821.03;5056678;28;19925;-82
2021/08/27 04:26:10;;;;;;;;;;;;;;;16.24;100.00;99814.31;5035200;28;20694;-82
2021/08/27 04:28:38;;;;;;;;;;;;;;;16.33;100.00;99810.88;5058404;28;19987;-82
2021/08/27 04:31:05;;;;;;;;;;;;;;;16.27;100.00;99818.28;5056472;28;20315;-82
2021/08/27 04:33:32;;;;;;;;;;;;;;;16.27;100.00;99818.28;5088514;28;19924;-82
2021/08/27 04:35:59;;;;;;;;;;;;;;;16.41;100.00;99815.06;5064967;28;19931;-82
2021/08/27 04:38:26;;;;;;;;;;;;;;;16.36;100.00;99830.50;5065528;28;19932;-82
2021/08/27 04:40:53;;;;;;;;;;;;;;;16.21;100.00;99832.91;5073013;28;19932;-82
2021/08/27 04:43:20;;;;;;;;;;;;;;;16.34;100.00;99837.81;5050647;28;19932;-82
2021/08/27 04:45:48;;;;;;;;;;;;;;;16.39;100.00;99834.47;5057212;28;19935;-82
2021/08/27 04:48:15;;;;;;;;;;;;;;;16.30;100.00;99835.09;5068733;28;19979;-82
2021/08/27 04:50:42;;;;;;;;;;;;;;;16.23;100.00;99836.09;5057394;28;20279;-82
2021/08/27 04:53:08;;;;;;;;;;;;;;;16.22;100.00;99840.13;5059387;28;19963;-82
2021/08/27 04:55:35;;;;;;;;;;;;;;;15.91;100.00;99841.75;5056136;28;19924;-82
2021/08/27 04:58:02;;;;;;;;;;;;;;;16.02;100.00;99836.63;5059357;28;19963;-82
2021/08/27 05:00:29;;;;;;;;;;;;;;;15.97;100.00;99834.34;5059249;28;20006;-82
2021/08/27 05:02:56;;;;;;;;;;;;;;;16.21;100.00;99838.56;5073534;28;19959;-82
2021/08/27 05:05:24;;;;;;;;;;;;;;;16.14;100.00;99838.75;5054016;28;20011;-82
2021/08/27 05:07:51;;;;;;;;;;;;;;;16.28;100.00;99831.94;5070460;28;19924;-82
2021/08/27 05:10:18;;;;;;;;;;;;;;;16.04;100.00;99831.34;5055970;28;20351;-82
2021/08/27 05:12:46;;;;;;;;;;;;;;;16.32;100.00;99837.47;5071705;28;19947;-82
2021/08/27 05:15:13;;;;;;;;;;;;;;;16.33;100.00;99836.25;5063109;28;19974;-82
2021/08/27 05:17:40;;;;;;;;;;;;;;;16.49;100.00;99839.06;5094012;28;19924;-82
2021/08/27 05:20:07;;;;;;;;;;;;;;;16.32;100.00;99840.28;5067562;28;19978;-82
2021/08/27 05:22:35;;;;;;;;;;;;;;;16.41;100.00;99841.25;5075550;28;19924;-82
2021/08/27 05:25:02;;;;;;;;;;;;;;;16.46;100.00;99831.47;5071516;28;19924;-82
2021/08/27 05:27:34;;;;;;;;;;;;;;;16.52;100.00;99833.31;5029596;28;19931;-82
2021/08/27 05:30:03;;;;;;;;;;;;;;;16.30;100.00;99840.72;5071588;28;20264;-82
2021/08/27 05:32:30;;;;;;;;;;;;;;;16.51;100.00;99828.91;5075888;28;19924;-82
2021/08/27 05:34:57;;;;;;;;;;;;;;;16.54;100.00;99833.66;5093763;28;19928;-82
2021/08/27 05:37:24;;;;;;;;;;;;;;;16.43;100.00;99838.78;5040799;28;20017;-82
2021/08/27 05:39:51;;;;;;;;;;;;;;;16.55;100.00;99840.88;5056561;28;19924;-82
2021/08/27 05:42:18;;;;;;;;;;;;;;;16.45;100.00;99853.25;5075482;28;20022;-83
2021/08/27 05:44:45;;;;;;;;;;;;;;;16.48;100.00;99857.22;5059370;28;19931;-83
2021/08/27 05:47:12;;;;;;;;;;;;;;;16.35;100.00;99865.59;5071706;28;20366;-82
2021/08/27 05:49:39;;;;;;;;;;;;;;;16.44;100.00;99850.88;5061258;28;19924;-85
2021/08/27 05:52:07;;;;;;;;;;;;;;;16.05;100.00;99861.09;5075353;28;20030;-84
2021/08/27 05:54:34;;;;;;;;;;;;;;;16.36;100.00;99867.16;5057796;28;19924;-82
2021/08/27 05:57:01;;;;;;;;;;;;;;;16.57;100.00;99854.56;5072528;28;19931;-82
2021/08/27 05:59:28;;;;;;;;;;;;;;;16.64;100.00;99869.25;5056604;28;20443;-81
2021/08/27 06:01:55;;;;;;;;;;;;;;;16.33;100.00;99867.28;5055503;28;19950;-81
2021/08/27 06:04:23;;;;;;;;;;;;;;;16.35;100.00;99876.88;5080068;28;19924;-81
2021/08/27 06:06:53;;;;;;;;;;;;;;;16.38;100.00;99878.00;5074622;28;19925;-81
2021/08/27 06:09:21;;;;;;;;;;;;;;;16.27;100.00;99883.13;5072383;28;20329;-81
2021/08/27 06:11:50;;;;;;;;;;;;;;;16.49;100.00;99887.81;5064289;28;19928;-81
2021/08/27 06:14:17;;;;;;;;;;;;;;;16.47;100.00;99883.81;5078137;28;19998;-81
2021/08/27 06:16:44;;;;;;;;;;;;;;;16.51;100.00;99890.19;5092126;28;19925;-82
2021/08/27 06:19:11;;;;;;;;;;;;;;;16.49;100.00;99882.16;5072234;28;19928;-83
2021/08/27 06:21:39;;;;;;;;;;;;;;;16.53;100.00;99877.22;5044350;28;19924;-84
2021/08/27 06:24:06;;;;;;;;;;;;;;;16.40;100.00;99876.34;5049952;28;19925;-83
2021/08/27 06:26:34;;;;;;;;;;;;;;;16.55;100.00;99885.22;5076858;28;19924;-86
2021/08/27 06:29:03;;;;;;;;;;;;;;;16.61;100.00;99889.09;5055110;28;19924;-82
2021/08/27 06:35:11;;;;;;;;;;;;;;;16.39;100.00;99896.53;5007204;28;19971;-83
2021/08/27 06:40:25;;;;;;;;;;;;;;;16.82;100.00;99899.78;5011403;28;19932;-83
2021/08/27 06:42:52;;;;;;;;;;;;;;;16.52;100.00;99891.75;5014381;28;20009;-83
2021/08/27 06:45:19;;;;;;;;;;;;;;;16.56;100.00;99889.63;5003072;28;19925;-80
2021/08/27 06:47:46;;;;;;;;;;;;;;;16.45;100.00;99903.25;4994873;28;19925;-81
2021/08/27 06:50:16;;;;;;;;;;;;;;;16.39;100.00;99899.34;5013300;28;19925;-81
2021/08/27 06:52:43;;;;;;;;;;;;;;;16.33;100.00;99898.28;4997785;28;19930;-80
2021/08/27 06:55:10;;;;;;;;;;;;;;;16.37;100.00;99899.78;4998064;28;20023;-81
2021/08/27 06:57:37;;;;;;;;;;;;;;;16.50;100.00;99895.03;5007576;28;19933;-81
2021/08/27 07:00:05;;;;;;;;;;;;;;;16.55;100.00;99893.69;5008514;28;19952;-81
2021/08/27 07:02:35;;;;;;;;;;;;;;;16.74;100.00;99892.75;5001072;28;19952;-82
2021/08/27 07:05:02;;;;;;;;;;;;;;;16.93;100.00;99881.34;5010755;28;19929;-81
2021/08/27 07:07:29;;;;;;;;;;;;;;;16.96;100.00;99890.94;5013058;28;20002;-83
2021/08/27 07:09:57;;;;;;;;;;;;;;;16.64;100.00;99889.00;4997534;28;19930;-81
2021/08/27 07:12:24;;;;;;;;;;;;;;;16.91;100.00;99886.63;5053627;28;19924;-81
2021/08/27 07:14:51;;;;;;;;;;;;;;;16.77;100.00;99886.22;5061733;28;19925;-81
2021/08/27 07:17:19;;;;;;;;;;;;;;;17.54;100.00;99889.59;5058874;28;20015;-80
2021/08/27 07:19:49;;;;;;;;;;;;;;;17.74;100.00;99879.66;5078489;28;20018;-81
2021/08/27 07:22:17;;;;;;;;;;;;;;;18.10;100.00;99884.16;5078049;28;19943;-83
2021/08/27 07:24:44;;;;;;;;;;;;;;;18.19;100.00;99887.88;5060384;28;20276;-83
2021/08/27 07:27:11;;;;;;;;;;;;;;;18.39;100.00;99884.81;5069001;28;19924;-83
2021/08/27 07:29:39;;;;;;;;;;;;;;;19.12;100.00;99884.16;5057430;28;19925;-82
2021/08/27 07:32:38;;;;;;;;;;;;;;;19.68;100.00;99882.78;5053680;28;19924;-83
2021/08/27 07:35:11;;;;;;;;;;;;;;;19.54;100.00;99874.84;5008144;28;19924;-83
2021/08/27 07:37:41;;;;;;;;;;;;;;;20.17;100.00;99877.16;5059264;28;19966;-83
2021/08/27 07:40:14;;;;;;;;;;;;;;;19.75;100.00;99875.25;5031611;28;20268;-82
2021/08/27 07:42:45;;;;;;;;;;;;;;;19.49;100.00;99875.44;5071140;28;19925;-83
2021/08/27 07:45:14;;;;;;;;;;;;;;;19.15;100.00;99884.03;5056339;28;19924;-83
2021/08/27 07:47:48;;;;;;;;;;;;;;;18.87;100.00;99885.06;5062986;28;20346;-83
2021/08/27 07:50:20;;;;;;;;;;;;;;;19.05;100.00;99890.09;5090466;28;20322;-81
2021/08/27 07:52:49;;;;;;;;;;;;;;;19.63;100.00;99883.38;5084247;28;20279;-81
2021/08/27 07:55:16;;;;;;;;;;;;;;;19.88;100.00;99875.91;5076950;28;20040;-81
2021/08/27 07:57:44;;;;;;;;;;;;;;;19.40;100.00;99878.22;5072356;28;19924;-80
2021/08/27 08:00:14;;;;;;;;;;;;;;;19.20;100.00;99886.28;5076215;28;19946;-82
2021/08/27 08:02:50;;;;;;;;;;;;;;;18.92;100.00;99892.97;5044525;28;19967;-78
2021/08/27 08:05:19;;;;;;;;;;;;;;;19.20;100.00;99903.28;5057518;28;20019;-79
2021/08/27 08:07:46;;;;;;;;;;;;;;;19.38;100.00;99909.09;5073251;28;19928;-80
2021/08/27 08:10:13;;;;;;;;;;;;;;;19.39;100.00;99907.03;5071994;28;19931;-80
2021/08/27 08:12:41;;;;;;;;;;;;;;;19.40;100.00;99912.22;5092671;28;20375;-79
2021/08/27 08:15:08;;;;;;;;;;;;;;;19.82;100.00;99914.66;5068265;28;20375;-79
2021/08/27 08:17:35;;;;;;;;;;;;;;;19.67;100.00;99903.88;5074112;28;19925;-78
2021/08/27 08:20:03;;;;;;;;;;;;;;;19.49;100.00;99909.44;5060070;28;20391;-78
2021/08/27 08:22:31;;;;;;;;;;;;;;;19.32;100.00;99910.13;5064714;28;20398;-79
2021/08/27 08:24:59;;;;;;;;;;;;;;;19.09;100.00;99914.19;5057951;28;19932;-82
2021/08/27 08:27:26;;;;;;;;;;;;;;;19.06;100.00;99906.63;5086854;28;19936;-79
2021/08/27 08:29:53;;;;;;;;;;;;;;;18.92;100.00;99915.63;5060931;28;19923;-78
2021/08/27 08:32:20;;;;;;;;;;;;;;;19.18;100.00;99904.97;5093209;28;19928;-79
2021/08/27 08:34:47;;;;;;;;;;;;;;;19.30;100.00;99902.09;5089918;28;19932;-78
2021/08/27 08:37:14;;;;;;;;;;;;;;;18.92;100.00;99909.16;5088974;28;20570;-78
2021/08/27 08:39:42;;;;;;;;;;;;;;;18.79;100.00;99914.91;5074978;28;19947;-79
2021/08/27 08:42:09;;;;;;;;;;;;;;;19.20;100.00;99914.59;5092546;28;19924;-79
2021/08/27 08:44:36;;;;;;;;;;;;;;;19.69;100.00;99912.72;5072791;28;19932;-78
2021/08/27 08:47:03;;;;;;;;;;;;;;;20.17;100.00;99916.09;5077635;28;19955;-78
2021/08/27 08:49:32;;;;;;;;;;;;;;;21.67;100.00;99911.38;5075037;28;20012;-79
2021/08/27 08:52:00;;;;;;;;;;;;;;;22.09;100.00;99912.19;5090819;28;19924;-79
2021/08/27 08:54:29;;;;;;;;;;;;;;;21.82;100.00;99906.63;5092810;28;19925;-79
2021/08/27 08:56:57;;;;;;;;;;;;;;;21.59;100.00;99912.97;5073749;28;19928;-79
2021/08/27 08:59:25;;;;;;;;;;;;;;;21.25;100.00;99913.34;5074721;28;19959;-79
2021/08/27 09:01:53;;;;;;;;;;;;;;;21.09;100.00;99916.53;5070691;28;19924;-78
2021/08/27 09:04:24;;;;;;;;;;;;;;;21.16;100.00;99905.63;5089994;28;19971;-79
2021/08/27 09:06:52;;;;;;;;;;;;;;;21.12;100.00;99915.59;5073527;28;19924;-79
2021/08/27 09:09:30;;;;;;;;;;;;;;;20.63;100.00;99912.88;5093464;28;19924;-79
2021/08/27 09:11:57;;;;;;;;;;;;;;;19.89;100.00;99914.38;5058000;28;19959;-78
2021/08/27 09:14:28;;;;;;;;;;;;;;;19.61;100.00;99916.31;5067560;28;19963;-79
2021/08/27 09:17:03;;;;;;;;;;;;;;;19.60;100.00;99926.84;5074696;28;19924;-79
2021/08/27 09:19:50;;;;;;;;;;;;;;;19.41;100.00;99919.50;5075516;28;20379;-81
2021/08/27 09:22:42;;;;;;;;;;;;;;;19.02;100.00;99925.78;5075716;28;19931;-82
2021/08/27 09:25:10;;;;;;;;;;;;;;;19.19;100.00;99932.84;5070621;28;19967;-80
2021/08/27 09:27:57;;;;;;;;;;;;;;;19.12;100.00;99938.78;5074528;28;19931;-80
2021/08/27 09:30:24;;;;;;;;;;;;;;;18.52;100.00;99942.16;5092069;28;19930;-80
2021/08/27 09:32:52;;;;;;;;;;;;;;;18.39;100.00;99953.50;5068703;28;20009;-80
2021/08/27 09:35:22;;;;;;;;;;;;;;;18.33;100.00;99952.47;5070827;28;19932;-79
2021/08/27 09:37:50;;;;;;;;;;;;;;;18.38;100.00;99948.28;5052453;28;19932;-79
2021/08/27 09:40:17;;;;;;;;;;;;;;;18.85;100.00;99949.88;5075282;28;19924;-79
2021/08/27 09:42:50;;;;;;;;;;;;;;;19.27;100.00;99947.56;5064988;28;19932;-79
2021/08/27 09:45:18;;;;;;;;;;;;;;;19.13;100.00;99948.06;5075663;28;19970;-79
2021/08/27 09:48:05;;;;;;;;;;;;;;;19.81;100.00;99938.59;5074721;28;19955;-78
2021/08/27 09:50:33;;;;;;;;;;;;;;;19.86;100.00;99935.94;5071531;28;20033;-78
2021/08/27 09:53:01;;;;;;;;;;;;;;;19.61;100.00;99938.97;5078108;28;19924;-78
2021/08/27 09:55:30;;;;;;;;;;;;;;;19.25;100.00;99928.16;5094968;28;19928;-78
2021/08/27 09:58:06;;;;;;;;;;;;;;;18.75;100.00;99933.28;5077843;28;19931;-78
2021/08/27 10:00:39;;;;;;;;;;;;;;;18.72;100.00;99940.63;5095295;28;19932;-80
2021/08/27 10:03:19;;;;;;;;;;;;;;;18.91;100.00;99942.38;5096809;28;19924;-78
2021/08/27 10:05:48;;;;;;;;;;;;;;;18.83;100.00;99941.03;5078474;28;19931;-78
2021/08/27 10:08:20;;;;;;;;;;;;;;;18.27;100.00;99940.13;5077801;28;19935;-81
2021/08/27 10:10:54;;;;;;;;;;;;;;;18.60;100.00;99946.34;5077924;28;20316;-78
2021/08/27 10:13:22;;;;;;;;;;;;;;;18.71;100.00;99939.06;5074702;28;19930;-78
2021/08/27 10:15:51;;;;;;;;;;;;;;;18.69;100.00;99941.53;5061763;28;19978;-78
2021/08/27 10:18:18;;;;;;;;;;;;;;;18.96;100.00;99935.34;5076702;28;19943;-78
2021/08/27 10:20:46;;;;;;;;;;;;;;;19.04;100.00;99934.63;5075363;28;19924;-79
2021/08/27 10:23:15;;;;;;;;;;;;;;;19.39;100.00;99930.50;5082923;28;19963;-78
2021/08/27 10:25:42;;;;;;;;;;;;;;;19.59;100.00;99925.28;5078258;28;20025;-78
2021/08/27 10:28:09;;;;;;;;;;;;;;;19.77;100.00;99918.09;5054422;28;20360;-79
2021/08/27 10:30:48;;;;;;;;;;;;;;;19.90;100.00;99925.28;5089618;28;19924;-78
2021/08/27 10:33:17;;;;;;;;;;;;;;;19.72;100.00;99913.03;5092692;28;20298;-78
2021/08/27 10:35:47;;;;;;;;;;;;;;;19.51;100.00;99915.44;5042265;28;20050;-78
2021/08/27 10:38:33;;;;;;;;;;;;;;;19.45;100.00;99925.00;5056775;28;20263;-78
2021/08/27 10:41:08;;;;;;;;;;;;;;;19.20;100.00;99931.59;5094691;28;20320;-78
2021/08/27 10:43:49;;;;;;;;;;;;;;;19.46;100.00;99930.22;5073974;28;19939;-78
2021/08/27 10:46:16;;;;;;;;;;;;;;;19.48;100.00;99927.72;5091233;28;19924;-78
2021/08/27 10:48:50;;;;;;;;;;;;;;;19.60;100.00;99921.16;5095283;28;19970;-78
2021/08/27 10:51:36;;;;;;;;;;;;;;;19.94;100.00;99916.59;5091200;28;19931;-78
2021/08/27 10:54:05;;;;;;;;;;;;;;;20.07;100.00;99909.56;5094364;28;20284;-79
2021/08/27 10:56:38;;;;;;;;;;;;;;;20.15;100.00;99915.75;5076429;28;19928;-78
2021/08/27 10:59:08;;;;;;;;;;;;;;;20.44;100.00;99901.97;5074177;28;19931;-79
2021/08/27 11:01:36;;;;;;;;;;;;;;;20.78;100.00;99896.78;5073658;28;20280;-78
2021/08/27 11:04:30;;;;;;;;;;;;;;;20.44;100.00;99887.75;5090030;28;19924;-78
2021/08/27 11:07:04;;;;;;;;;;;;;;;20.59;100.00;99900.09;5049385;28;19924;-79
2021/08/27 11:09:32;;;;;;;;;;;;;;;20.03;100.00;99908.91;5058084;28;19992;-78
2021/08/27 11:12:08;;;;;;;;;;;;;;;20.21;100.00;99908.22;5094134;28;20342;-81
2021/08/27 11:14:39;;;;;;;;;;;;;;;20.24;100.00;99915.78;5053392;28;19930;-80
2021/08/27 11:17:07;;;;;;;;;;;;;;;20.28;100.00;99920.06;5091720;28;20023;-80
2021/08/27 11:19:40;;;;;;;;;;;;;;;19.59;100.00;99916.75;5048981;28;19959;-80
2021/08/27 11:22:11;;;;;;;;;;;;;;;19.71;100.00;99915.06;5093785;28;19924;-80
2021/08/27 11:24:39;;;;;;;;;;;;;;;19.82;100.00;99914.66;5093981;28;19924;-80
2021/08/27 11:27:17;;;;;;;;;;;;;;;19.49;100.00;99920.00;5043265;28;19923;-80
2021/08/27 11:29:48;;;;;;;;;;;;;;;19.57;100.00;99930.59;5075704;28;20275;-78
2021/08/27 11:32:27;;;;;;;;;;;;;;;19.44;100.00;99929.91;5041484;28;19924;-82
2021/08/27 11:34:55;;;;;;;;;;;;;;;19.44;100.00;99929.09;5076928;28;19954;-78
2021/08/27 11:37:31;;;;;;;;;;;;;;;19.19;100.00;99929.22;5071924;28;19932;-78
2021/08/27 11:39:58;;;;;;;;;;;;;;;19.13;100.00;99926.19;5076167;28;19924;-79
2021/08/27 11:42:25;;;;;;;;;;;;;;;19.23;100.00;99930.69;5076265;28;20467;-79
2021/08/27 11:45:07;;;;;;;;;;;;;;;19.22;100.00;99929.09;5077084;28;19932;-79
2021/08/27 11:47:42;;;;;;;;;;;;;;;18.96;100.00;99926.84;5055359;28;19930;-79
2021/08/27 11:50:21;;;;;;;;;;;;;;;19.15;100.00;99932.19;5083873;28;19928;-80
2021/08/27 11:52:49;;;;;;;;;;;;;;;19.13;100.00;99919.75;5074919;28;19963;-78
2021/08/27 11:55:17;;;;;;;;;;;;;;;19.87;100.00;99916.91;5040943;28;20391;-79
2021/08/27 11:57:48;;;;;;;;;;;;;;;20.07;100.00;99908.78;5075440;28;19924;-79
2021/08/27 12:00:16;;;;;;;;;;;;;;;19.97;100.00;99915.66;5071463;28;19924;-78
2021/08/27 12:02:43;;;;;;;;;;;;;;;19.78;100.00;99909.13;5090013;28;19964;-79
2021/08/27 12:05:11;;;;;;;;;;;;;;;20.09;100.00;99906.25;5089383;28;19932;-79
2021/08/27 12:07:51;;;;;;;;;;;;;;;20.40;100.00;99904.16;5069398;28;20411;-78
2021/08/27 12:10:20;;;;;;;;;;;;;;;20.17;100.00;99904.75;5071577;28;19986;-78
2021/08/27 12:12:48;;;;;;;;;;;;;;;20.13;100.00;99910.53;5074013;28;19924;-79
2021/08/27 12:15:19;;;;;;;;;;;;;;;20.69;100.00;99915.88;5073727;28;20429;-78
2021/08/27 12:17:54;;;;;;;;;;;;;;;20.10;100.00;99913.53;5055942;28;19971;-78
2021/08/27 12:20:23;;;;;;;;;;;;;;;20.12;100.00;99905.31;5054724;28;20379;-78
2021/08/27 12:22:55;;;;;;;;;;;;;;;20.22;100.00;99915.47;5055755;28;20375;-79
2021/08/27 12:25:26;;;;;;;;;;;;;;;20.20;100.00;99907.44;5022824;28;19924;-78
2021/08/27 12:28:03;;;;;;;;;;;;;;;20.07;100.00;99914.47;5055769;28;20637;-79
2021/08/27 12:30:30;;;;;;;;;;;;;;;19.95;100.00;99918.97;5072809;28;19924;-79
2021/08/27 12:33:09;;;;;;;;;;;;;;;19.94;100.00;99910.91;5073011;28;19925;-78
2021/08/27 12:36:02;;;;;;;;;;;;;;;20.17;100.00;99918.94;5072037;28;19930;-78
2021/08/27 12:38:29;;;;;;;;;;;;;;;20.27;100.00;99926.19;5045800;28;19924;-78
2021/08/27 12:41:17;;;;;;;;;;;;;;;20.67;100.00;99924.09;5030992;28;19959;-78
2021/08/27 12:43:45;;;;;;;;;;;;;;;20.98;100.00;99917.03;5067463;28;19931;-78
2021/08/27 12:46:27;;;;;;;;;;;;;;;21.02;100.00;99922.56;5049422;28;19972;-79
2021/08/27 12:49:13;;;;;;;;;;;;;;;20.95;100.00;99905.81;5023996;28;20403;-79
2021/08/27 12:51:47;;;;;;;;;;;;;;;20.91;100.00;99905.97;5061724;28;20574;-78
2021/08/27 12:54:14;;;;;;;;;;;;;;;20.58;100.00;99921.22;5029234;28;19929;-79
2021/08/27 12:56:41;;;;;;;;;;;;;;;20.21;100.00;99917.53;5037208;28;19935;-79